createdAt,value
2023-05-10T00:05:08.145Z,1.3
2023-05-10T00:11:00.169Z,0.8
2023-05-10T00:16:52.356Z,1.1
2023-05-10T00:22:44.639Z,1.5
2023-05-10T00:28:37.032Z,1.6
2023-05-10T00:34:29.235Z,0.8
2023-05-10T00:40:21.289Z,2.9
2023-05-10T00:46:12.886Z,2.2
2023-05-10T00:52:05.061Z,1
2023-05-10T00:57:57.350Z,0.8
2023-05-10T01:03:49.876Z,3.7
2023-05-10T01:09:41.598Z,2.1
2023-05-10T01:15:34.602Z,1.9
2023-05-10T01:21:26.918Z,1.7
2023-05-10T01:27:18.926Z,3.4
2023-05-10T01:33:11.288Z,2.1
2023-05-10T01:39:03.710Z,2.2
2023-05-10T01:44:56.253Z,3
2023-05-10T01:50:49.001Z,1.4
2023-05-10T01:56:41.298Z,2.4
2023-05-10T02:02:34.144Z,2.3
2023-05-10T02:08:26.056Z,2.1
2023-05-10T02:14:18.263Z,1.9
2023-05-10T02:20:10.912Z,1.5
2023-05-10T02:26:03.119Z,2.5
2023-05-10T02:31:55.151Z,2.3
2023-05-10T02:37:47.635Z,3.4
2023-05-10T02:43:40.095Z,1.8
2023-05-10T02:49:32.623Z,1.7
2023-05-10T02:55:25.108Z,2.3
2023-05-10T03:01:17.329Z,1.3
2023-05-10T03:07:10.284Z,2.2
2023-05-10T03:13:02.582Z,2.2
2023-05-10T03:18:55.328Z,2.6
2023-05-10T03:24:47.612Z,1.6
2023-05-10T03:30:40.252Z,2.7
2023-05-10T03:36:30.633Z,2.4
2023-05-10T03:42:20.854Z,2.3
2023-05-10T03:48:12.976Z,3.4
2023-05-10T03:54:04.353Z,2.4
2023-05-10T03:59:56.918Z,2.7
2023-05-10T04:05:48.863Z,4.3
2023-05-10T04:11:41.075Z,9
2023-05-10T04:17:33.840Z,5.4
2023-05-10T04:23:25.888Z,8.2
2023-05-10T04:29:18.110Z,9.3
2023-05-10T04:35:10.888Z,8.7
2023-05-10T04:41:03.115Z,10.2
2023-05-10T04:46:55.975Z,9.2
2023-05-10T04:52:48.096Z,8.9
2023-05-10T04:58:40.230Z,8.7
2023-05-10T05:04:32.717Z,8.2
2023-05-10T05:10:25.264Z,10.4
2023-05-10T05:16:18.773Z,8.7
2023-05-10T05:22:12.169Z,8.9
2023-05-10T05:28:04.747Z,8
2023-05-10T05:33:57.553Z,8.1
2023-05-10T05:45:39.531Z,6
2023-05-10T05:56:09.005Z,6.7
2023-05-10T06:05:25.781Z,5.1
2023-05-10T06:12:24.724Z,4.4
2023-05-10T06:18:20.414Z,6.4
2023-05-10T06:24:13.261Z,6
2023-05-10T06:31:14.490Z,6.8
2023-05-10T06:37:07.275Z,7.1
2023-05-10T06:42:59.621Z,7.7
2023-05-10T06:48:53.064Z,8.5
2023-05-10T06:54:48.014Z,9.5
2023-05-10T07:00:45.940Z,9.7
2023-05-10T07:06:40.152Z,9.9
2023-05-10T07:12:33.747Z,8.5
2023-05-10T07:18:55.823Z,11.2
2023-05-10T07:31:56.478Z,9.8
2023-05-10T07:38:14.396Z,9.7
2023-05-10T07:44:20.827Z,9.8
2023-05-10T07:50:12.735Z,11.2
2023-05-10T07:56:05.648Z,9.2
2023-05-10T08:01:57.618Z,8.1
2023-05-10T08:07:49.756Z,7.8
2023-05-10T08:13:42.602Z,6.3
2023-05-10T08:19:36.223Z,6.4
2023-05-10T08:25:31.024Z,6.3
2023-05-10T08:31:26.672Z,6.1
2023-05-10T08:37:21.571Z,11.8
2023-05-10T08:43:15.991Z,5.5
2023-05-10T08:49:09.710Z,10.1
2023-05-10T08:55:01.751Z,11.6
2023-05-10T09:00:53.948Z,7.4
2023-05-10T09:06:48.127Z,3.3
2023-05-10T09:12:39.356Z,1.7
2023-05-10T09:18:33.675Z,2.1
2023-05-10T09:24:34.876Z,3.2
2023-05-10T09:30:26.908Z,1.8
2023-05-10T09:36:18.674Z,1.8
2023-05-10T09:42:10.153Z,1.4
2023-05-10T09:48:03.674Z,1
2023-05-10T09:53:56.615Z,1.7
2023-05-10T09:59:48.612Z,1.9
2023-05-10T10:05:41.654Z,2.9
2023-05-10T10:11:36.238Z,2.6
2023-05-10T10:17:29.905Z,1.5
2023-05-10T10:23:23.788Z,1.2
2023-05-10T10:29:21.003Z,2
2023-05-10T10:36:25.251Z,2.2
2023-05-10T10:46:58.544Z,1.5
2023-05-10T10:52:55.263Z,1.5
2023-05-10T11:22:21.291Z,1.2
2023-05-10T11:31:54.643Z,1.8
2023-05-10T11:37:47.047Z,1.1
2023-05-10T11:48:18.211Z,1.5
2023-05-10T11:54:08.556Z,2.6
2023-05-10T12:17:22.726Z,1.3
2023-05-10T12:49:07.055Z,1.3
2023-05-10T12:54:57.952Z,1.9
2023-05-10T13:00:50.400Z,2.6
2023-05-10T13:06:43.494Z,2.2
2023-05-10T13:12:34.873Z,6.7
2023-05-10T13:18:26.783Z,2.5
2023-05-10T13:24:19.520Z,2.4
2023-05-10T13:30:11.632Z,3.5
2023-05-10T13:36:05.752Z,3.2
2023-05-10T13:41:59.426Z,3.8
2023-05-10T13:47:52.243Z,3.8
2023-05-10T13:59:40.174Z,4.3
2023-05-10T14:05:34.016Z,4.6
2023-05-10T14:11:28.394Z,4.8
2023-05-10T14:18:30.045Z,3.5
2023-05-10T14:24:54.633Z,1.8
2023-05-10T14:30:48.220Z,1.8
2023-05-10T14:36:40.989Z,2.3
2023-05-10T14:56:34.273Z,1.4
2023-05-10T15:03:33.820Z,1.7
2023-05-10T15:09:41.174Z,1.2
2023-05-10T15:15:40.151Z,2
2023-05-10T15:29:13.763Z,5.5
2023-05-10T15:36:33.578Z,1.1
2023-05-10T15:42:27.160Z,2.6
2023-05-10T15:48:18.727Z,1.5
2023-05-10T15:54:13.852Z,2.2
2023-05-10T16:00:05.133Z,1.8
2023-05-10T16:05:57.835Z,2.1
2023-05-10T16:11:52.737Z,2.2
2023-05-10T16:17:43.301Z,3
2023-05-10T16:23:36.238Z,3
2023-05-10T16:29:28.564Z,3.1
2023-05-10T16:35:23.466Z,2.6
2023-05-10T16:41:14.763Z,3.6
2023-05-10T16:47:06.526Z,5.3
2023-05-10T16:52:58.364Z,3.2
2023-05-10T16:58:50.266Z,4.6
2023-05-10T17:04:42.338Z,3.1
2023-05-10T17:10:34.290Z,3.2
2023-05-10T17:16:26.680Z,3.6
2023-05-10T17:22:19.639Z,3.2
2023-05-10T17:28:11.151Z,2.8
2023-05-10T17:34:05.723Z,2.5
2023-05-10T17:39:58.228Z,3.1
2023-05-10T17:45:50.481Z,5.3
2023-05-10T17:51:43.106Z,3.9
2023-05-10T17:57:34.765Z,4
2023-05-10T18:03:25.263Z,3.7
2023-05-10T18:09:18.033Z,5.1
2023-05-10T18:15:10.672Z,3
2023-05-10T18:21:03.276Z,3.5
2023-05-10T18:26:55.414Z,1.9
2023-05-10T18:32:47.478Z,3.9
2023-05-10T18:38:38.734Z,3.2
2023-05-10T18:45:37.325Z,6
2023-05-10T18:51:27.569Z,3.6
2023-05-10T18:57:19.665Z,16.3
2023-05-10T19:03:15.191Z,10.4
2023-05-10T19:09:10.490Z,5.3
2023-05-10T19:15:01.909Z,4.6
2023-05-10T19:21:02.091Z,13
2023-05-10T19:26:54.438Z,4.9
2023-05-10T19:32:47.111Z,3.6
2023-05-10T19:38:39.019Z,5.5
2023-05-10T19:44:36.838Z,8.2
2023-05-10T19:50:30.765Z,6.8
2023-05-10T19:56:25.673Z,6
2023-05-10T20:02:33.028Z,5.7
2023-05-10T20:08:24.662Z,5.2
2023-05-10T20:14:21.139Z,4.5
2023-05-10T20:26:26.092Z,7.2
2023-05-10T20:32:18.045Z,6.8
2023-05-10T20:38:13.693Z,7.5
2023-05-10T20:44:12.741Z,6.4
2023-05-10T20:50:09.396Z,5.8
2023-05-10T20:56:03.244Z,5.9
2023-05-10T21:01:58.700Z,5.3
2023-05-10T21:07:51.981Z,8.3
2023-05-10T21:13:58.240Z,6.4
2023-05-10T21:19:56.716Z,5.9
2023-05-10T21:25:49.556Z,5.4
2023-05-10T21:31:48.979Z,3.9
2023-05-10T21:37:46.069Z,7.4
2023-05-10T21:52:05.061Z,6
2023-05-10T21:58:11.099Z,5.7
2023-05-10T22:04:03.699Z,4
2023-05-10T22:09:56.792Z,4.6
2023-05-10T22:15:50.759Z,5.5
2023-05-10T22:21:50.019Z,4.9
2023-05-10T22:27:43.896Z,4.9
2023-05-10T22:33:46.157Z,3.9
2023-05-10T22:44:16.094Z,3.5
2023-05-10T22:50:49.150Z,4.1
2023-05-10T22:57:05.765Z,1.6
2023-05-10T23:16:47.590Z,2.3
2023-05-10T23:23:19.491Z,1.2
